Wetterstation Vordersexau
Wetterdaten: Woche 21.08.17 - 27.08.17 (KW34)
Datum Zeit Temp. A. Feuchte A. Luftdruck Regen Wind Richtung Taupunkt Windchill Windben
21.08.2017 00:00 10,9 C 80 % 1022,6 hPa 0,0 l/m 0,0 km/h O-SO 7,6 C 10,9 C 0,0 km/h
21.08.2017 01:00 10,4 C 82 % 1022,2 hPa 0,0 l/m 0,0 km/h O 7,5 C 10,4 C 0,0 km/h
21.08.2017 02:00 10,4 C 82 % 1022,1 hPa 0,0 l/m 0,0 km/h O-SO 7,5 C 10,4 C 0,0 km/h
21.08.2017 03:00 10,9 C 83 % 1021,7 hPa 0,0 l/m 0,0 km/h O-NO 8,1 C 10,9 C 0,0 km/h
21.08.2017 04:00 10,5 C 83 % 1021,8 hPa 0,0 l/m 0,0 km/h O-SO 7,7 C 10,5 C 0,0 km/h
21.08.2017 05:00 11,1 C 83 % 1021,4 hPa 0,0 l/m 0,0 km/h O-SO 8,3 C 11,1 C 0,0 km/h
21.08.2017 06:00 11,5 C 83 % 1021,4 hPa 0,0 l/m 10,4 km/h O-SO 8,7 C 9,0 C 5,8 km/h
21.08.2017 07:00 12,4 C 83 % 1021,7 hPa 0,0 l/m 0,0 km/h O-SO 9,6 C 12,4 C 0,0 km/h
21.08.2017 08:00 13,3 C 82 % 1021,9 hPa 0,0 l/m 0,0 km/h O-SO 10,3 C 13,3 C 0,0 km/h
21.08.2017 09:00 17,4 C 76 % 1021,8 hPa 0,0 l/m 0,0 km/h W 13,1 C 17,4 C 0,0 km/h
21.08.2017 10:00 20,3 C 61 % 1021,7 hPa 0,0 l/m 0,0 km/h W-NW 12,5 C 20,3 C 0,0 km/h
21.08.2017 11:00 22,6 C 53 % 1021,5 hPa 0,0 l/m 0,0 km/h W-NW 12,5 C 22,6 C 0,0 km/h
21.08.2017 12:00 24,1 C 49 % 1021,0 hPa 0,0 l/m 0,0 km/h N 12,7 C 24,1 C 0,0 km/h
21.08.2017 13:00 25,4 C 44 % 1020,5 hPa 0,0 l/m 10,4 km/h W 12,2 C 24,5 C 5,8 km/h
21.08.2017 14:00 26,4 C 42 % 1020,1 hPa 0,0 l/m 5,8 km/h S-SO 12,4 C 26,4 C 3,2 km/h
21.08.2017 15:00 27,2 C 41 % 1019,4 hPa 0,0 l/m 0,0 km/h W 12,8 C 27,2 C 0,0 km/h
21.08.2017 16:00 28,6 C 37 % 1019,2 hPa 0,0 l/m 8,4 km/h W 12,5 C 28,3 C 4,7 km/h
21.08.2017 17:00 31,3 C 31 % 1019,0 hPa 0,0 l/m 0,0 km/h N 12,1 C 31,3 C 0,0 km/h
21.08.2017 18:00 29,2 C 31 % 1019,0 hPa 0,0 l/m 0,6 km/h W-NW 10,3 C 29,2 C 0,4 km/h
21.08.2017 19:00 20,3 C 47 % 1019,1 hPa 0,0 l/m 0,0 km/h W-NW 8,6 C 20,3 C 0,0 km/h
21.08.2017 20:00 17,3 C 63 % 1019,4 hPa 0,0 l/m 0,0 km/h N 10,2 C 17,3 C 0,0 km/h
21.08.2017 21:00 16,4 C 67 % 1019,4 hPa 0,0 l/m 0,0 km/h O-SO 10,3 C 16,4 C 0,0 km/h
21.08.2017 22:00 16,3 C 71 % 1019,4 hPa 0,0 l/m 0,0 km/h SO 11,0 C 16,3 C 0,0 km/h
21.08.2017 23:00 16,1 C 72 % 1019,2 hPa 0,0 l/m 0,0 km/h SO 11,0 C 16,1 C 0,0 km/h
22.08.2017 00:00 15,9 C 75 % 1018,9 hPa 0,0 l/m 1,9 km/h SO 11,5 C 15,9 C 1,1 km/h
22.08.2017 01:00 15,8 C 75 % 1018,7 hPa 0,0 l/m 0,0 km/h O 11,4 C 15,8 C 0,0 km/h
22.08.2017 02:00 15,8 C 76 % 1018,4 hPa 0,0 l/m 0,0 km/h O-SO 11,6 C 15,8 C 0,0 km/h
22.08.2017 03:00 15,5 C 77 % 1018,5 hPa 0,0 l/m 0,0 km/h O-SO 11,5 C 15,5 C 0,0 km/h
22.08.2017 04:00 15,4 C 79 % 1018,3 hPa 0,0 l/m 0,0 km/h O-SO 11,8 C 15,4 C 0,0 km/h
22.08.2017 05:00 15,3 C 80 % 1018,4 hPa 0,0 l/m 0,0 km/h O-SO 11,9 C 15,3 C 0,0 km/h
22.08.2017 06:00 15,3 C 81 % 1018,3 hPa 0,0 l/m 0,0 km/h O-SO 12,1 C 15,3 C 0,0 km/h
22.08.2017 07:00 15,9 C 81 % 1018,6 hPa 0,0 l/m 0,0 km/h SO 12,6 C 15,9 C 0,0 km/h
22.08.2017 08:00 17,1 C 79 % 1018,3 hPa 0,0 l/m 0,0 km/h SO 13,4 C 17,1 C 0,0 km/h
22.08.2017 09:00 18,8 C 75 % 1018,4 hPa 0,0 l/m 0,0 km/h N 14,3 C 18,8 C 0,0 km/h
22.08.2017 10:00 23,3 C 62 % 1017,9 hPa 0,0 l/m 0,0 km/h W 15,6 C 23,3 C 0,0 km/h
22.08.2017 11:00 25,6 C 53 % 1017,2 hPa 0,0 l/m 0,0 km/h N-NW 15,3 C 25,6 C 0,0 km/h
22.08.2017 12:00 27,3 C 49 % 1016,8 hPa 0,0 l/m 0,0 km/h N 15,6 C 27,3 C 0,0 km/h
22.08.2017 13:00 27,6 C 45 % 1016,3 hPa 0,0 l/m 0,0 km/h W 14,6 C 27,6 C 0,0 km/h
22.08.2017 14:00 28,8 C 44 % 1015,9 hPa 0,0 l/m 3,2 km/h N 15,3 C 28,8 C 1,8 km/h
22.08.2017 15:00 28,4 C 44 % 1015,9 hPa 0,0 l/m 0,0 km/h W-SW 14,9 C 28,4 C 0,0 km/h
22.08.2017 16:00 30,9 C 41 % 1015,5 hPa 0,0 l/m 8,4 km/h W 16,1 C 30,8 C 4,7 km/h
22.08.2017 17:00 33,1 C 35 % 1015,3 hPa 0,0 l/m 1,9 km/h W-NW 15,6 C 33,1 C 1,1 km/h
22.08.2017 18:00 31,9 C 36 % 1014,6 hPa 0,0 l/m 0,0 km/h W 14,9 C 31,9 C 0,0 km/h
22.08.2017 19:00 24,5 C 50 % 1014,7 hPa 0,0 l/m 0,0 km/h W-NW 13,4 C 24,5 C 0,0 km/h
22.08.2017 20:00 18,4 C 69 % 1015,1 hPa 0,0 l/m 0,0 km/h W-NW 12,6 C 18,4 C 0,0 km/h
22.08.2017 21:00 16,7 C 75 % 1014,9 hPa 0,0 l/m 0,0 km/h SO 12,2 C 16,7 C 0,0 km/h
22.08.2017 22:00 15,6 C 79 % 1014,8 hPa 0,0 l/m 0,0 km/h SO 12,0 C 15,6 C 0,0 km/h
22.08.2017 23:00 14,9 C 81 % 1014,2 hPa 0,0 l/m 0,0 km/h O-SO 11,7 C 14,9 C 0,0 km/h
23.08.2017 00:00 14,4 C 83 % 1014,3 hPa 0,0 l/m 0,0 km/h O-SO 11,5 C 14,4 C 0,0 km/h
23.08.2017 01:00 14,1 C 83 % 1014,2 hPa 0,0 l/m 0,0 km/h O-SO 11,3 C 14,1 C 0,0 km/h
23.08.2017 02:00 14,3 C 83 % 1014,4 hPa 0,0 l/m 0,0 km/h O-SO 11,5 C 14,3 C 0,0 km/h
23.08.2017 03:00 13,8 C 83 % 1013,8 hPa 0,0 l/m 0,0 km/h O-SO 11,0 C 13,8 C 0,0 km/h
23.08.2017 04:00 13,3 C 83 % 1013,4 hPa 0,0 l/m 0,0 km/h O-SO 10,5 C 13,3 C 0,0 km/h
23.08.2017 05:00 13,5 C 83 % 1013,6 hPa 0,0 l/m 0,0 km/h O-SO 10,7 C 13,5 C 0,0 km/h
23.08.2017 06:00 12,9 C 83 % 1013,9 hPa 0,0 l/m 0,0 km/h O-SO 10,1 C 12,9 C 0,0 km/h
23.08.2017 07:00 14,2 C 81 % 1014,0 hPa 0,0 l/m 0,0 km/h O-SO 11,0 C 14,2 C 0,0 km/h
23.08.2017 08:00 17,2 C 81 % 1014,3 hPa 0,0 l/m 0,0 km/h NO 13,9 C 17,2 C 0,0 km/h
23.08.2017 09:00 21,2 C 75 % 1014,3 hPa 0,0 l/m 0,0 km/h S-SO 16,6 C 21,2 C 0,0 km/h
23.08.2017 10:00 27,4 C 56 % 1013,9 hPa 0,0 l/m 0,0 km/h N-NW 17,8 C 27,4 C 0,0 km/h
23.08.2017 11:00 26,9 C 54 % 1013,6 hPa 0,0 l/m 0,0 km/h W 16,8 C 26,9 C 0,0 km/h
23.08.2017 12:00 28,8 C 51 % 1013,5 hPa 0,0 l/m 0,0 km/h W 17,6 C 28,8 C 0,0 km/h
23.08.2017 13:00 30,6 C 48 % 1013,3 hPa 0,0 l/m 0,0 km/h S-SW 18,3 C 30,6 C 0,0 km/h
23.08.2017 14:00 32,7 C 44 % 1013,1 hPa 0,0 l/m 0,0 km/h W-SW 18,8 C 32,7 C 0,0 km/h
23.08.2017 15:00 33,2 C 41 % 1012,9 hPa 0,0 l/m 1,9 km/h N-NO 18,1 C 33,2 C 1,1 km/h
23.08.2017 16:00 36,2 C 33 % 1012,6 hPa 0,0 l/m 0,0 km/h W 17,3 C 36,2 C 0,0 km/h
23.08.2017 17:00 38,7 C 29 % 1012,3 hPa 0,0 l/m 0,0 km/h W 17,4 C 38,7 C 0,0 km/h
23.08.2017 18:00 33,9 C 39 % 1011,9 hPa 0,0 l/m 0,0 km/h W-NW 18,0 C 33,9 C 0,0 km/h
23.08.2017 19:00 29,3 C 49 % 1011,9 hPa 0,0 l/m 0,0 km/h O-SO 17,5 C 29,3 C 0,0 km/h
23.08.2017 20:00 21,8 C 65 % 1012,3 hPa 0,0 l/m 0,0 km/h O-SO 14,9 C 21,8 C 0,0 km/h
23.08.2017 21:00 20,1 C 72 % 1012,5 hPa 0,0 l/m 0,0 km/h O 14,9 C 20,1 C 0,0 km/h
23.08.2017 22:00 19,3 C 74 % 1012,7 hPa 0,0 l/m 0,0 km/h O 14,5 C 19,3 C 0,0 km/h
23.08.2017 23:00 18,1 C 76 % 1013,0 hPa 0,0 l/m 0,0 km/h O-SO 13,8 C 18,1 C 0,0 km/h
24.08.2017 00:00 17,2 C 79 % 1013,2 hPa 0,0 l/m 0,0 km/h O 13,5 C 17,2 C 0,0 km/h
24.08.2017 01:00 16,6 C 81 % 1013,3 hPa 0,0 l/m 0,0 km/h O 13,3 C 16,6 C 0,0 km/h
24.08.2017 02:00 16,3 C 82 % 1013,8 hPa 0,0 l/m 0,0 km/h O-SO 13,2 C 16,3 C 0,0 km/h
24.08.2017 03:00 15,8 C 83 % 1014,0 hPa 0,0 l/m 0,0 km/h O-SO 12,9 C 15,8 C 0,0 km/h
24.08.2017 04:00 15,3 C 83 % 1013,9 hPa 0,0 l/m 0,0 km/h O-SO 12,4 C 15,3 C 0,0 km/h
24.08.2017 05:00 15,1 C 82 % 1013,9 hPa 0,0 l/m 0,0 km/h O-SO 12,0 C 15,1 C 0,0 km/h
24.08.2017 06:00 15,0 C 80 % 1014,8 hPa 0,0 l/m 0,0 km/h O-SO 11,6 C 15,0 C 0,0 km/h
24.08.2017 07:00 16,9 C 78 % 1015,3 hPa 0,0 l/m 0,0 km/h O-SO 13,0 C 16,9 C 0,0 km/h
24.08.2017 08:00 18,6 C 80 % 1015,4 hPa 0,0 l/m 0,0 km/h O-SO 15,1 C 18,6 C 0,0 km/h
24.08.2017 09:00 21,9 C 82 % 1015,7 hPa 0,0 l/m 0,0 km/h SO 18,7 C 21,9 C 0,0 km/h
24.08.2017 10:00 27,3 C 69 % 1015,8 hPa 0,0 l/m 0,0 km/h N-NO 21,1 C 27,3 C 0,0 km/h
24.08.2017 11:00 29,4 C 57 % 1015,4 hPa 0,0 l/m 0,0 km/h W 20,0 C 29,4 C 0,0 km/h
24.08.2017 12:00 29,3 C 54 % 1015,0 hPa 0,0 l/m 0,0 km/h N 19,0 C 29,3 C 0,0 km/h
24.08.2017 13:00 31,2 C 48 % 1014,7 hPa 0,0 l/m 14,9 km/h N 18,9 C 30,8 C 8,3 km/h
24.08.2017 14:00 32,1 C 44 % 1014,6 hPa 0,0 l/m 0,0 km/h NW 18,3 C 32,1 C 0,0 km/h
24.08.2017 15:00 32,2 C 44 % 1014,5 hPa 0,0 l/m 0,0 km/h W 18,4 C 32,2 C 0,0 km/h
24.08.2017 16:00 29,9 C 48 % 1014,8 hPa 0,0 l/m 0,0 km/h W-SW 17,7 C 29,9 C 0,0 km/h
24.08.2017 17:00 27,2 C 52 % 1015,0 hPa 0,0 l/m 14,3 km/h W 16,5 C 26,0 C 7,9 km/h
24.08.2017 18:00 26,6 C 54 % 1015,0 hPa 0,0 l/m 0,0 km/h W 16,5 C 26,6 C 0,0 km/h
24.08.2017 19:00 27,1 C 53 % 1014,9 hPa 0,0 l/m 0,0 km/h SO 16,7 C 27,1 C 0,0 km/h
24.08.2017 20:00 20,6 C 69 % 1015,1 hPa 0,0 l/m 0,0 km/h NO 14,7 C 20,6 C 0,0 km/h
24.08.2017 21:00 18,6 C 74 % 1015,1 hPa 0,0 l/m 0,0 km/h NO 13,9 C 18,6 C 0,0 km/h
24.08.2017 22:00 17,4 C 78 % 1015,5 hPa 0,0 l/m 0,0 km/h O 13,5 C 17,4 C 0,0 km/h
24.08.2017 23:00 16,6 C 80 % 1015,4 hPa 0,0 l/m 0,0 km/h O 13,1 C 16,6 C 0,0 km/h
25.08.2017 00:00 15,6 C 82 % 1015,5 hPa 0,0 l/m 0,0 km/h O 12,5 C 15,6 C 0,0 km/h
25.08.2017 01:00 15,3 C 83 % 1015,6 hPa 0,0 l/m 0,0 km/h N 12,4 C 15,3 C 0,0 km/h
25.08.2017 02:00 15,5 C 83 % 1015,4 hPa 0,0 l/m 0,0 km/h NO 12,6 C 15,5 C 0,0 km/h
25.08.2017 03:00 15,2 C 83 % 1015,4 hPa 0,0 l/m 0,0 km/h NO 12,3 C 15,2 C 0,0 km/h
25.08.2017 04:00 14,5 C 83 % 1015,2 hPa 0,0 l/m 0,0 km/h NO 11,6 C 14,5 C 0,0 km/h
25.08.2017 05:00 14,2 C 83 % 1015,2 hPa 0,0 l/m 0,0 km/h NO 11,4 C 14,2 C 0,0 km/h
25.08.2017 06:00 14,1 C 82 % 1015,7 hPa 0,0 l/m 0,0 km/h NO 11,1 C 14,1 C 0,0 km/h
25.08.2017 07:00 15,4 C 82 % 1015,5 hPa 0,0 l/m 0,0 km/h O-SO 12,3 C 15,4 C 0,0 km/h
25.08.2017 08:00 21,2 C 79 % 1015,8 hPa 0,0 l/m 0,0 km/h O-SO 17,4 C 21,2 C 0,0 km/h
25.08.2017 09:00 25,6 C 63 % 1015,7 hPa 0,0 l/m 0,0 km/h N-NW 18,0 C 25,6 C 0,0 km/h
25.08.2017 10:00 28,4 C 56 % 1015,5 hPa 0,0 l/m 0,0 km/h S 18,8 C 28,4 C 0,0 km/h
25.08.2017 11:00 30,1 C 54 % 1015,0 hPa 0,0 l/m 0,0 km/h S-SW 19,7 C 30,1 C 0,0 km/h
25.08.2017 12:00 32,0 C 49 % 1014,8 hPa 0,0 l/m 0,0 km/h W 19,9 C 32,0 C 0,0 km/h
25.08.2017 13:00 32,6 C 44 % 1014,3 hPa 0,0 l/m 1,9 km/h W-SW 18,7 C 32,6 C 1,1 km/h
25.08.2017 14:00 31,8 C 45 % 1014,0 hPa 0,0 l/m 0,0 km/h W 18,4 C 31,8 C 0,0 km/h
25.08.2017 15:00 32,6 C 44 % 1013,6 hPa 0,0 l/m 0,0 km/h SW 18,7 C 32,6 C 0,0 km/h
25.08.2017 16:00 31,5 C 44 % 1013,1 hPa 0,0 l/m 0,0 km/h SW 17,7 C 31,5 C 0,0 km/h
25.08.2017 17:00 28,9 C 55 % 1013,1 hPa 0,0 l/m 0,0 km/h SO 18,9 C 28,9 C 0,0 km/h
25.08.2017 18:00 32,9 C 47 % 1012,7 hPa 0,0 l/m 0,0 km/h SO 20,1 C 32,9 C 0,0 km/h
25.08.2017 19:00 26,5 C 61 % 1012,8 hPa 0,0 l/m 0,0 km/h O-SO 18,4 C 26,5 C 0,0 km/h
25.08.2017 20:00 22,3 C 72 % 1013,1 hPa 0,0 l/m 0,0 km/h O-SO 17,0 C 22,3 C 0,0 km/h
25.08.2017 21:00 20,9 C 77 % 1013,3 hPa 0,0 l/m 0,0 km/h O-SO 16,7 C 20,9 C 0,0 km/h
25.08.2017 22:00 19,9 C 80 % 1013,4 hPa 0,0 l/m 0,0 km/h O-SO 16,3 C 19,9 C 0,0 km/h
25.08.2017 23:00 19,1 C 81 % 1013,9 hPa 0,0 l/m 0,0 km/h O-SO 15,8 C 19,1 C 0,0 km/h
26.08.2017 00:00 17,9 C 82 % 1013,9 hPa 0,0 l/m 0,0 km/h O-SO 14,8 C 17,9 C 0,0 km/h
26.08.2017 01:00 17,4 C 82 % 1013,7 hPa 0,0 l/m 0,0 km/h O-SO 14,3 C 17,4 C 0,0 km/h
26.08.2017 02:00 16,9 C 83 % 1013,6 hPa 0,0 l/m 0,0 km/h O-SO 14,0 C 16,9 C 0,0 km/h
26.08.2017 03:00 16,4 C 83 % 1013,6 hPa 0,0 l/m 0,0 km/h O-SO 13,5 C 16,4 C 0,0 km/h
26.08.2017 04:00 16,1 C 82 % 1013,3 hPa 0,0 l/m 0,0 km/h SO 13,0 C 16,1 C 0,0 km/h
26.08.2017 05:00 16,5 C 81 % 1013,5 hPa 0,0 l/m 0,0 km/h O-SO 13,2 C 16,5 C 0,0 km/h
26.08.2017 06:00 16,8 C 82 % 1013,8 hPa 0,0 l/m 0,0 km/h S-SO 13,7 C 16,8 C 0,0 km/h
26.08.2017 07:00 21,6 C 70 % 1014,2 hPa 0,0 l/m 9,7 km/h S 15,9 C 20,5 C 5,4 km/h
26.08.2017 08:00 25,8 C 49 % 1014,3 hPa 0,0 l/m 7,1 km/h SW 14,3 C 25,6 C 4,0 km/h
26.08.2017 09:00 29,3 C 44 % 1014,3 hPa 0,0 l/m 0,0 km/h W-SW 15,8 C 29,3 C 0,0 km/h
26.08.2017 10:00 30,6 C 39 % 1014,3 hPa 0,0 l/m 22,0 km/h S-SW 15,0 C 29,8 C 12,2 km/h
26.08.2017 11:00 29,8 C 41 % 1014,5 hPa 0,0 l/m 0,0 km/h W 15,1 C 29,8 C 0,0 km/h
26.08.2017 12:00 30,9 C 41 % 1013,9 hPa 0,0 l/m 8,4 km/h W-SW 16,1 C 30,8 C 4,7 km/h
26.08.2017 13:00 32,1 C 39 % 1013,6 hPa 0,0 l/m 8,4 km/h S-SW 16,4 C 32,0 C 4,7 km/h
26.08.2017 14:00 33,3 C 35 % 1013,1 hPa 0,0 l/m 0,0 km/h S-SO 15,7 C 33,3 C 0,0 km/h
26.08.2017 15:00 34,0 C 34 % 1012,9 hPa 0,0 l/m 20,7 km/h S 15,9 C 34,0 C 11,5 km/h
26.08.2017 16:00 35,9 C 33 % 1012,4 hPa 0,0 l/m 0,0 km/h SW 17,1 C 35,9 C 0,0 km/h
26.08.2017 17:00 37,7 C 31 % 1012,0 hPa 0,0 l/m 0,0 km/h W 17,6 C 37,7 C 0,0 km/h
26.08.2017 18:00 35,7 C 38 % 1011,7 hPa 0,0 l/m 0,0 km/h W-SW 19,1 C 35,7 C 0,0 km/h
26.08.2017 19:00 26,7 C 54 % 1012,0 hPa 0,0 l/m 0,0 km/h O-SO 16,6 C 26,7 C 0,0 km/h
26.08.2017 20:00 22,1 C 66 % 1012,8 hPa 0,0 l/m 0,0 km/h O-SO 15,4 C 22,1 C 0,0 km/h
26.08.2017 21:00 20,4 C 70 % 1013,2 hPa 0,0 l/m 0,0 km/h O-NO 14,7 C 20,4 C 0,0 km/h
26.08.2017 22:00 19,6 C 73 % 1013,3 hPa 0,0 l/m 0,0 km/h SO 14,6 C 19,6 C 0,0 km/h
26.08.2017 23:00 18,7 C 76 % 1013,3 hPa 0,0 l/m 0,0 km/h O-SO 14,4 C 18,7 C 0,0 km/h
27.08.2017 00:00 17,8 C 79 % 1013,5 hPa 0,0 l/m 0,0 km/h O 14,1 C 17,8 C 0,0 km/h
27.08.2017 01:00 16,9 C 80 % 1013,7 hPa 0,0 l/m 0,0 km/h O 13,4 C 16,9 C 0,0 km/h
27.08.2017 02:00 16,4 C 81 % 1014,1 hPa 0,0 l/m 0,0 km/h O-NO 13,1 C 16,4 C 0,0 km/h
27.08.2017 03:00 16,9 C 82 % 1013,7 hPa 0,0 l/m 0,0 km/h O 13,8 C 16,9 C 0,0 km/h
27.08.2017 04:00 17,4 C 82 % 1013,5 hPa 0,0 l/m 0,0 km/h O-SO 14,3 C 17,4 C 0,0 km/h
27.08.2017 05:00 16,8 C 83 % 1013,1 hPa 0,0 l/m 0,0 km/h O-SO 13,9 C 16,8 C 0,0 km/h
27.08.2017 06:00 16,8 C 82 % 1014,0 hPa 0,0 l/m 0,0 km/h O-SO 13,7 C 16,8 C 0,0 km/h
27.08.2017 07:00 17,8 C 82 % 1014,0 hPa 0,0 l/m 0,0 km/h NO 14,7 C 17,8 C 0,0 km/h
27.08.2017 08:00 20,8 C 82 % 1014,5 hPa 0,0 l/m 0,0 km/h O-SO 17,6 C 20,8 C 0,0 km/h
27.08.2017 09:00 25,3 C 69 % 1014,7 hPa 0,0 l/m 0,0 km/h W 19,2 C 25,3 C 0,0 km/h
27.08.2017 10:00 28,8 C 56 % 1015,1 hPa 0,0 l/m 0,0 km/h W-SW 19,1 C 28,8 C 0,0 km/h
27.08.2017 11:00 29,1 C 54 % 1015,0 hPa 0,0 l/m 0,0 km/h W 18,8 C 29,1 C 0,0 km/h
27.08.2017 12:00 31,1 C 49 % 1014,8 hPa 0,0 l/m 0,0 km/h S 19,1 C 31,1 C 0,0 km/h
27.08.2017 13:00 31,3 C 48 % 1014,6 hPa 0,0 l/m 8,4 km/h W 18,9 C 31,2 C 4,7 km/h
27.08.2017 14:00 32,7 C 43 % 1013,9 hPa 0,0 l/m 9,7 km/h S-SW 18,5 C 32,7 C 5,4 km/h
27.08.2017 15:00 33,1 C 41 % 1013,7 hPa 0,0 l/m 0,0 km/h W 18,0 C 33,1 C 0,0 km/h
27.08.2017 16:00 34,4 C 40 % 1013,4 hPa 0,0 l/m 0,0 km/h W-SW 18,8 C 34,4 C 0,0 km/h
27.08.2017 17:00 33,1 C 40 % 1012,8 hPa 0,0 l/m 0,0 km/h N-NO 17,7 C 33,1 C 0,0 km/h
27.08.2017 18:00 33,8 C 43 % 1012,6 hPa 0,0 l/m 0,0 km/h N-NO 19,4 C 33,8 C 0,0 km/h
27.08.2017 19:00 26,3 C 60 % 1013,3 hPa 0,0 l/m 0,0 km/h N-NO 17,9 C 26,3 C 0,0 km/h
27.08.2017 20:00 21,8 C 72 % 1014,3 hPa 0,0 l/m 0,0 km/h N-NO 16,5 C 21,8 C 0,0 km/h
27.08.2017 21:00 19,6 C 77 % 1014,8 hPa 0,0 l/m 0,0 km/h NO 15,5 C 19,6 C 0,0 km/h
27.08.2017 22:00 19,2 C 80 % 1014,9 hPa 0,0 l/m 0,0 km/h NO 15,7 C 19,2 C 0,0 km/h
27.08.2017 23:00 18,9 C 82 % 1015,3 hPa 0,0 l/m 0,0 km/h NO 15,8 C 18,9 C 0,0 km/h
Min-Datum _ 21.08.17 23.08.17 26.08.17 - 21.08.17 - 21.08.17 21.08.17 21.08.17
_ Min-Zeit 01:53 17:53 18:53 - 00:53 - 01:53 06:53 00:53
Minimum _ 10,4 C 29 % 1011,7 hPa - 0,0 km/h - 7,5 C 9,0 C 0,0 km/h
Max-Datum _ 23.08.17 21.08.17 21.08.17 21.08.17 26.08.17 - 24.08.17 23.08.17 26.08.17
_ Max-Zeit 17:53 03:53 00:53 00:53 10:53 - 10:53 17:53 10:53
Maximum _ 38,7 C 83 % 1022,6 hPa 0,0 l/m 22,0 km/h
S-SW
- 21,1 C 38,7 C 12,2 km/h
S-SW
Durchschnitt _ 22,4 C 65 % 1015,4 hPa #0,0 l/m 1,1 km/h O-SO 14,6 C 22,4 C 0,6 km/h
www.sexauwetter.de